sensor_id;sensor_type;location;lat;lon;timestamp;pressure;altitude;pressure_sealevel;temperature;humidity
21395;BME280;10858;42.714;23.180;2023-04-12T00:00:02;93547.88;;;9.37;70.84
21395;BME280;10858;42.714;23.180;2023-04-12T00:02:29;93544.31;;;9.29;70.78
21395;BME280;10858;42.714;23.180;2023-04-12T00:04:55;93543.28;;;9.39;70.80
21395;BME280;10858;42.714;23.180;2023-04-12T00:07:23;93544.56;;;9.26;70.97
21395;BME280;10858;42.714;23.180;2023-04-12T00:09:50;93540.81;;;9.28;71.02
21395;BME280;10858;42.714;23.180;2023-04-12T00:12:17;93549.28;;;9.32;70.77
21395;BME280;10858;42.714;23.180;2023-04-12T00:14:44;93536.13;;;9.40;70.29
21395;BME280;10858;42.714;23.180;2023-04-12T00:17:11;93534.25;;;9.32;70.68
21395;BME280;10858;42.714;23.180;2023-04-12T00:19:38;93537.03;;;9.31;70.42
21395;BME280;10858;42.714;23.180;2023-04-12T00:22:10;93527.66;;;9.19;70.98
21395;BME280;10858;42.714;23.180;2023-04-12T00:24:40;93536.84;;;9.15;71.41
21395;BME280;10858;42.714;23.180;2023-04-12T00:27:07;93529.84;;;9.23;71.01
21395;BME280;10858;42.714;23.180;2023-04-12T00:29:33;93528.56;;;9.27;70.64
21395;BME280;10858;42.714;23.180;2023-04-12T00:32:00;93527.66;;;9.19;71.07
21395;BME280;10858;42.714;23.180;2023-04-12T00:34:28;93524.25;;;9.26;70.80
21395;BME280;10858;42.714;23.180;2023-04-12T00:36:54;93523.97;;;9.29;70.56
21395;BME280;10858;42.714;23.180;2023-04-12T00:39:22;93521.44;;;9.28;70.59
21395;BME280;10858;42.714;23.180;2023-04-12T00:41:48;93518.78;;;9.37;70.43
21395;BME280;10858;42.714;23.180;2023-04-12T00:44:15;93519.34;;;9.31;70.59
21395;BME280;10858;42.714;23.180;2023-04-12T00:46:46;93510.94;;;9.36;70.42
21395;BME280;10858;42.714;23.180;2023-04-12T00:49:13;93505.56;;;9.28;70.79
21395;BME280;10858;42.714;23.180;2023-04-12T00:51:40;93511.19;;;9.25;71.17
21395;BME280;10858;42.714;23.180;2023-04-12T00:54:06;93506.41;;;9.28;70.79
21395;BME280;10858;42.714;23.180;2023-04-12T00:56:33;93503.00;;;9.36;70.76
21395;BME280;10858;42.714;23.180;2023-04-12T00:58:59;93495.22;;;9.17;71.27
21395;BME280;10858;42.714;23.180;2023-04-12T01:01:27;93490.00;;;9.25;71.04
21395;BME280;10858;42.714;23.180;2023-04-12T01:03:54;93504.22;;;9.24;71.15
21395;BME280;10858;42.714;23.180;2023-04-12T01:15:07;93504.38;;;9.40;70.24
21395;BME280;10858;42.714;23.180;2023-04-12T01:17:42;93495.72;;;9.48;70.00
21395;BME280;10858;42.714;23.180;2023-04-12T01:20:22;93494.09;;;9.37;70.34
21395;BME280;10858;42.714;23.180;2023-04-12T01:28:18;93495.59;;;9.22;70.95
21395;BME280;10858;42.714;23.180;2023-04-12T01:30:47;93496.78;;;9.10;71.68
21395;BME280;10858;42.714;23.180;2023-04-12T01:33:15;93496.25;;;9.06;71.68
21395;BME280;10858;42.714;23.180;2023-04-12T01:35:43;93504.34;;;9.05;71.94
21395;BME280;10858;42.714;23.180;2023-04-12T01:38:11;93496.06;;;9.17;71.58
21395;BME280;10858;42.714;23.180;2023-04-12T01:40:38;93488.91;;;9.18;71.26
21395;BME280;10858;42.714;23.180;2023-04-12T01:43:12;93489.91;;;9.17;71.46
21395;BME280;10858;42.714;23.180;2023-04-12T01:45:39;93486.69;;;9.23;71.19
21395;BME280;10858;42.714;23.180;2023-04-12T01:48:07;93489.00;;;9.26;71.03
21395;BME280;10858;42.714;23.180;2023-04-12T01:51:05;93480.53;;;9.22;71.10
21395;BME280;10858;42.714;23.180;2023-04-12T01:56:10;93486.19;;;9.10;71.51
21395;BME280;10858;42.714;23.180;2023-04-12T01:58:38;93485.34;;;8.92;72.16
21395;BME280;10858;42.714;23.180;2023-04-12T02:01:08;93486.31;;;8.91;72.62
21395;BME280;10858;42.714;23.180;2023-04-12T02:03:36;93480.88;;;8.92;72.38
21395;BME280;10858;42.714;23.180;2023-04-12T02:06:03;93487.09;;;9.01;72.51
21395;BME280;10858;42.714;23.180;2023-04-12T02:08:30;93484.81;;;9.06;72.36
21395;BME280;10858;42.714;23.180;2023-04-12T02:10:56;93481.75;;;9.10;71.88
21395;BME280;10858;42.714;23.180;2023-04-12T02:13:22;93482.25;;;9.14;71.56
21395;BME280;10858;42.714;23.180;2023-04-12T02:15:49;93482.91;;;8.98;72.28
21395;BME280;10858;42.714;23.180;2023-04-12T02:18:16;93480.81;;;9.02;72.44
21395;BME280;10858;42.714;23.180;2023-04-12T02:20:42;93484.91;;;9.14;72.25
21395;BME280;10858;42.714;23.180;2023-04-12T02:23:09;93477.38;;;9.19;71.95
21395;BME280;10858;42.714;23.180;2023-04-12T02:25:35;93480.88;;;9.19;72.17
21395;BME280;10858;42.714;23.180;2023-04-12T02:28:01;93477.47;;;9.27;71.60
21395;BME280;10858;42.714;23.180;2023-04-12T02:30:28;93475.59;;;9.37;71.48
21395;BME280;10858;42.714;23.180;2023-04-12T02:32:54;93471.66;;;9.59;70.62
21395;BME280;10858;42.714;23.180;2023-04-12T02:35:21;93474.47;;;9.57;70.51
21395;BME280;10858;42.714;23.180;2023-04-12T02:37:47;93466.06;;;9.62;70.29
21395;BME280;10858;42.714;23.180;2023-04-12T02:40:14;93464.28;;;9.70;70.59
21395;BME280;10858;42.714;23.180;2023-04-12T02:42:42;93452.97;;;9.60;71.12
21395;BME280;10858;42.714;23.180;2023-04-12T02:45:09;93454.88;;;9.68;71.32
21395;BME280;10858;42.714;23.180;2023-04-12T02:47:36;93453.41;;;9.73;71.71
21395;BME280;10858;42.714;23.180;2023-04-12T02:50:03;93457.16;;;9.88;71.68
21395;BME280;10858;42.714;23.180;2023-04-12T02:52:29;93451.13;;;9.78;72.09
21395;BME280;10858;42.714;23.180;2023-04-12T02:54:56;93449.78;;;9.92;71.96
21395;BME280;10858;42.714;23.180;2023-04-12T02:57:23;93458.59;;;10.00;71.64
21395;BME280;10858;42.714;23.180;2023-04-12T02:59:52;93451.19;;;10.04;71.13
21395;BME280;10858;42.714;23.180;2023-04-12T03:02:22;93467.00;;;10.13;70.86
21395;BME280;10858;42.714;23.180;2023-04-12T03:04:48;93454.50;;;10.06;71.18
21395;BME280;10858;42.714;23.180;2023-04-12T03:07:20;93461.31;;;10.26;70.52
21395;BME280;10858;42.714;23.180;2023-04-12T03:09:47;93454.09;;;10.18;70.63
21395;BME280;10858;42.714;23.180;2023-04-12T03:12:14;93462.59;;;10.04;70.93
21395;BME280;10858;42.714;23.180;2023-04-12T03:14:41;93456.63;;;10.20;70.53
21395;BME280;10858;42.714;23.180;2023-04-12T03:17:08;93470.91;;;10.09;70.82
21395;BME280;10858;42.714;23.180;2023-04-12T03:19:34;93461.78;;;10.04;70.84
21395;BME280;10858;42.714;23.180;2023-04-12T03:22:05;93469.34;;;10.16;70.27
21395;BME280;10858;42.714;23.180;2023-04-12T03:24:32;93476.56;;;10.32;69.91
21395;BME280;10858;42.714;23.180;2023-04-12T03:27:02;93476.16;;;10.19;70.11
21395;BME280;10858;42.714;23.180;2023-04-12T03:29:30;93480.16;;;10.23;69.62
21395;BME280;10858;42.714;23.180;2023-04-12T03:31:57;93479.22;;;10.32;69.56
21395;BME280;10858;42.714;23.180;2023-04-12T03:34:25;93482.50;;;10.52;69.25
21395;BME280;10858;42.714;23.180;2023-04-12T03:36:53;93484.16;;;10.53;68.84
21395;BME280;10858;42.714;23.180;2023-04-12T03:39:20;93486.53;;;10.38;69.09
21395;BME280;10858;42.714;23.180;2023-04-12T03:41:47;93483.38;;;10.35;69.11
21395;BME280;10858;42.714;23.180;2023-04-12T03:44:13;93486.97;;;10.08;70.29
21395;BME280;10858;42.714;23.180;2023-04-12T03:46:39;93486.91;;;10.00;71.06
21395;BME280;10858;42.714;23.180;2023-04-12T03:49:05;93478.59;;;9.77;72.11
21395;BME280;10858;42.714;23.180;2023-04-12T03:51:31;93477.47;;;9.80;72.10
21395;BME280;10858;42.714;23.180;2023-04-12T03:53:58;93482.16;;;9.86;71.21
21395;BME280;10858;42.714;23.180;2023-04-12T03:56:24;93488.06;;;9.80;72.25
21395;BME280;10858;42.714;23.180;2023-04-12T03:58:50;93485.94;;;9.83;71.60
21395;BME280;10858;42.714;23.180;2023-04-12T04:01:16;93479.06;;;9.73;72.14
21395;BME280;10858;42.714;23.180;2023-04-12T04:03:43;93486.78;;;9.84;71.98
21395;BME280;10858;42.714;23.180;2023-04-12T04:06:10;93490.91;;;9.86;72.01
21395;BME280;10858;42.714;23.180;2023-04-12T04:08:37;93485.88;;;9.75;72.19
21395;BME280;10858;42.714;23.180;2023-04-12T04:11:04;93489.38;;;9.76;71.85
21395;BME280;10858;42.714;23.180;2023-04-12T04:13:31;93500.63;;;9.60;72.22
21395;BME280;10858;42.714;23.180;2023-04-12T04:16:05;93502.81;;;9.82;71.60
21395;BME280;10858;42.714;23.180;2023-04-12T04:18:31;93515.25;;;9.82;71.44
21395;BME280;10858;42.714;23.180;2023-04-12T04:20:59;93521.91;;;9.86;71.15
21395;BME280;10858;42.714;23.180;2023-04-12T04:23:26;93523.31;;;9.80;71.38
21395;BME280;10858;42.714;23.180;2023-04-12T04:25:54;93531.78;;;9.66;71.55
21395;BME280;10858;42.714;23.180;2023-04-12T04:28:20;93535.66;;;9.89;70.93
21395;BME280;10858;42.714;23.180;2023-04-12T04:30:47;93534.91;;;9.79;70.87
21395;BME280;10858;42.714;23.180;2023-04-12T04:33:13;93533.00;;;9.89;70.76
21395;BME280;10858;42.714;23.180;2023-04-12T04:35:41;93535.06;;;9.78;69.94
21395;BME280;10858;42.714;23.180;2023-04-12T04:38:08;93536.03;;;9.94;69.67
21395;BME280;10858;42.714;23.180;2023-04-12T04:40:38;93536.94;;;10.20;69.13
21395;BME280;10858;42.714;23.180;2023-04-12T04:43:04;93537.31;;;10.08;69.07
21395;BME280;10858;42.714;23.180;2023-04-12T04:45:31;93538.63;;;10.21;68.21
21395;BME280;10858;42.714;23.180;2023-04-12T04:47:57;93548.38;;;10.21;68.46
21395;BME280;10858;42.714;23.180;2023-04-12T04:50:24;93548.81;;;9.99;68.86
21395;BME280;10858;42.714;23.180;2023-04-12T04:52:51;93551.72;;;9.88;68.69
21395;BME280;10858;42.714;23.180;2023-04-12T04:55:18;93550.56;;;9.90;68.57
21395;BME280;10858;42.714;23.180;2023-04-12T04:57:45;93564.94;;;10.05;68.16
21395;BME280;10858;42.714;23.180;2023-04-12T05:00:11;93558.22;;;10.11;67.40
21395;BME280;10858;42.714;23.180;2023-04-12T05:02:39;93557.69;;;10.07;67.73
21395;BME280;10858;42.714;23.180;2023-04-12T05:05:08;93552.09;;;10.10;66.92
21395;BME280;10858;42.714;23.180;2023-04-12T05:07:34;93564.59;;;10.18;66.85
21395;BME280;10858;42.714;23.180;2023-04-12T05:10:04;93566.59;;;10.06;65.57
21395;BME280;10858;42.714;23.180;2023-04-12T05:12:31;93563.50;;;9.93;64.89
21395;BME280;10858;42.714;23.180;2023-04-12T05:14:57;93562.31;;;10.23;64.75
21395;BME280;10858;42.714;23.180;2023-04-12T05:17:24;93571.25;;;10.22;64.15
21395;BME280;10858;42.714;23.180;2023-04-12T05:19:50;93558.56;;;9.98;64.60
21395;BME280;10858;42.714;23.180;2023-04-12T05:22:16;93562.91;;;10.17;64.65
21395;BME280;10858;42.714;23.180;2023-04-12T05:24:45;93550.03;;;9.87;64.92
21395;BME280;10858;42.714;23.180;2023-04-12T05:27:12;93551.00;;;9.68;64.75
21395;BME280;10858;42.714;23.180;2023-04-12T05:29:38;93557.31;;;9.85;65.21
21395;BME280;10858;42.714;23.180;2023-04-12T05:32:05;93564.31;;;9.59;64.85
21395;BME280;10858;42.714;23.180;2023-04-12T05:34:32;93565.75;;;9.71;64.93
21395;BME280;10858;42.714;23.180;2023-04-12T05:36:58;93576.59;;;9.77;64.16
21395;BME280;10858;42.714;23.180;2023-04-12T05:39:25;93570.97;;;9.80;63.55
21395;BME280;10858;42.714;23.180;2023-04-12T05:41:52;93568.63;;;9.60;62.94
21395;BME280;10858;42.714;23.180;2023-04-12T05:44:18;93563.19;;;9.61;63.68
21395;BME280;10858;42.714;23.180;2023-04-12T05:46:44;93579.25;;;9.77;62.48
21395;BME280;10858;42.714;23.180;2023-04-12T05:49:11;93579.72;;;10.08;62.49
21395;BME280;10858;42.714;23.180;2023-04-12T05:51:37;93583.22;;;10.26;61.35
21395;BME280;10858;42.714;23.180;2023-04-12T05:54:03;93582.91;;;10.29;62.52
21395;BME280;10858;42.714;23.180;2023-04-12T05:56:32;93584.13;;;10.60;60.56
21395;BME280;10858;42.714;23.180;2023-04-12T05:58:59;93589.34;;;10.95;60.14
21395;BME280;10858;42.714;23.180;2023-04-12T06:01:27;93590.84;;;10.72;59.76
21395;BME280;10858;42.714;23.180;2023-04-12T06:03:56;93592.19;;;10.76;61.10
21395;BME280;10858;42.714;23.180;2023-04-12T06:06:23;93595.56;;;10.61;60.94
21395;BME280;10858;42.714;23.180;2023-04-12T06:08:49;93598.34;;;10.77;60.83
21395;BME280;10858;42.714;23.180;2023-04-12T06:11:16;93608.09;;;10.51;60.98
21395;BME280;10858;42.714;23.180;2023-04-12T06:13:42;93606.97;;;10.53;61.42
21395;BME280;10858;42.714;23.180;2023-04-12T06:16:09;93608.19;;;10.41;62.25
21395;BME280;10858;42.714;23.180;2023-04-12T06:18:36;93605.84;;;10.56;61.73
21395;BME280;10858;42.714;23.180;2023-04-12T06:21:02;93608.72;;;10.70;61.51
21395;BME280;10858;42.714;23.180;2023-04-12T06:23:32;93606.56;;;10.66;60.86
21395;BME280;10858;42.714;23.180;2023-04-12T06:25:58;93603.03;;;10.83;60.55
21395;BME280;10858;42.714;23.180;2023-04-12T06:28:24;93603.94;;;11.25;59.26
21395;BME280;10858;42.714;23.180;2023-04-12T06:30:51;93602.94;;;11.18;59.65
21395;BME280;10858;42.714;23.180;2023-04-12T06:33:18;93594.91;;;10.84;59.35
21395;BME280;10858;42.714;23.180;2023-04-12T06:35:48;93601.66;;;11.30;59.01
21395;BME280;10858;42.714;23.180;2023-04-12T06:38:15;93610.38;;;11.48;58.55
21395;BME280;10858;42.714;23.180;2023-04-12T06:40:41;93607.59;;;11.24;58.57
21395;BME280;10858;42.714;23.180;2023-04-12T06:43:08;93605.41;;;11.53;58.20
21395;BME280;10858;42.714;23.180;2023-04-12T06:45:34;93605.94;;;11.65;57.76
21395;BME280;10858;42.714;23.180;2023-04-12T06:48:00;93597.41;;;11.45;58.01
21395;BME280;10858;42.714;23.180;2023-04-12T06:50:27;93605.03;;;11.74;58.00
21395;BME280;10858;42.714;23.180;2023-04-12T06:52:53;93596.28;;;11.56;57.59
21395;BME280;10858;42.714;23.180;2023-04-12T06:55:19;93599.53;;;11.67;58.25
21395;BME280;10858;42.714;23.180;2023-04-12T06:57:46;93603.41;;;11.89;57.66
21395;BME280;10858;42.714;23.180;2023-04-12T07:00:12;93586.88;;;12.59;56.34
21395;BME280;10858;42.714;23.180;2023-04-12T07:02:39;93579.06;;;12.34;54.50
21395;BME280;10858;42.714;23.180;2023-04-12T07:05:05;93578.03;;;12.75;54.77
21395;BME280;10858;42.714;23.180;2023-04-12T07:07:32;93584.84;;;13.02;53.68
21395;BME280;10858;42.714;23.180;2023-04-12T07:09:58;93587.31;;;13.19;53.36
21395;BME280;10858;42.714;23.180;2023-04-12T07:12:25;93586.56;;;12.46;55.24
21395;BME280;10858;42.714;23.180;2023-04-12T07:14:51;93592.53;;;11.66;57.21
21395;BME280;10858;42.714;23.180;2023-04-12T07:17:17;93597.53;;;11.02;59.97
21395;BME280;10858;42.714;23.180;2023-04-12T07:19:48;93600.22;;;11.10;59.00
21395;BME280;10858;42.714;23.180;2023-04-12T07:22:15;93586.06;;;11.35;58.27
21395;BME280;10858;42.714;23.180;2023-04-12T07:24:41;93594.41;;;11.40;58.68
21395;BME280;10858;42.714;23.180;2023-04-12T07:27:07;93590.44;;;10.85;58.68
21395;BME280;10858;42.714;23.180;2023-04-12T07:29:33;93577.22;;;12.26;55.82
21395;BME280;10858;42.714;23.180;2023-04-12T07:32:00;93591.00;;;13.18;51.90
21395;BME280;10858;42.714;23.180;2023-04-12T07:34:26;93580.44;;;13.41;51.29
21395;BME280;10858;42.714;23.180;2023-04-12T07:36:52;93582.41;;;13.86;50.27
21395;BME280;10858;42.714;23.180;2023-04-12T07:39:18;93570.50;;;13.65;49.11
21395;BME280;10858;42.714;23.180;2023-04-12T07:41:44;93571.84;;;14.00;48.22
21395;BME280;10858;42.714;23.180;2023-04-12T07:44:14;93571.63;;;14.10;46.54
21395;BME280;10858;42.714;23.180;2023-04-12T07:46:40;93574.97;;;13.34;48.15
21395;BME280;10858;42.714;23.180;2023-04-12T07:49:07;93569.88;;;13.55;48.22
21395;BME280;10858;42.714;23.180;2023-04-12T07:51:35;93566.78;;;13.44;47.84
21395;BME280;10858;42.714;23.180;2023-04-12T07:54:02;93566.66;;;13.76;46.77
21395;BME280;10858;42.714;23.180;2023-04-12T07:56:32;93565.41;;;12.53;47.76
21395;BME280;10858;42.714;23.180;2023-04-12T07:58:58;93576.59;;;11.66;49.52
21395;BME280;10858;42.714;23.180;2023-04-12T08:01:24;93574.34;;;11.46;49.92
21395;BME280;10858;42.714;23.180;2023-04-12T08:03:51;93559.88;;;11.40;49.60
21395;BME280;10858;42.714;23.180;2023-04-12T08:06:17;93566.31;;;11.71;50.10
21395;BME280;10858;42.714;23.180;2023-04-12T08:08:43;93568.06;;;11.55;48.41
21395;BME280;10858;42.714;23.180;2023-04-12T08:11:10;93570.16;;;11.85;47.50
21395;BME280;10858;42.714;23.180;2023-04-12T08:13:36;93557.56;;;13.00;45.71
21395;BME280;10858;42.714;23.180;2023-04-12T08:16:02;93551.84;;;14.72;41.98
21395;BME280;10858;42.714;23.180;2023-04-12T08:18:29;93542.81;;;16.55;38.50
21395;BME280;10858;42.714;23.180;2023-04-12T08:20:56;93526.75;;;17.38;37.50
21395;BME280;10858;42.714;23.180;2023-04-12T08:23:23;93526.09;;;18.04;35.82
21395;BME280;10858;42.714;23.180;2023-04-12T08:25:51;93536.47;;;16.62;37.48
21395;BME280;10858;42.714;23.180;2023-04-12T08:28:17;93529.69;;;16.24;38.09
21395;BME280;10858;42.714;23.180;2023-04-12T08:30:43;93520.88;;;17.49;35.85
21395;BME280;10858;42.714;23.180;2023-04-12T08:33:09;93522.56;;;17.97;34.51
21395;BME280;10858;42.714;23.180;2023-04-12T08:35:35;93534.56;;;17.33;36.28
21395;BME280;10858;42.714;23.180;2023-04-12T08:38:02;93540.81;;;15.71;39.64
21395;BME280;10858;42.714;23.180;2023-04-12T08:40:32;93514.75;;;15.79;39.31
21395;BME280;10858;42.714;23.180;2023-04-12T08:43:01;93529.69;;;14.86;40.86
21395;BME280;10858;42.714;23.180;2023-04-12T08:45:31;93529.53;;;14.65;42.71
21395;BME280;10858;42.714;23.180;2023-04-12T08:48:03;93510.66;;;15.18;41.38
21395;BME280;10858;42.714;23.180;2023-04-12T08:50:30;93500.84;;;15.84;37.88
21395;BME280;10858;42.714;23.180;2023-04-12T08:52:58;93509.16;;;14.87;39.94
21395;BME280;10858;42.714;23.180;2023-04-12T08:55:24;93504.06;;;13.95;40.54
21395;BME280;10858;42.714;23.180;2023-04-12T08:57:53;93510.00;;;14.05;41.90
21395;BME280;10858;42.714;23.180;2023-04-12T09:00:21;93509.41;;;14.77;40.98
21395;BME280;10858;42.714;23.180;2023-04-12T09:02:47;93523.25;;;14.95;38.44
21395;BME280;10858;42.714;23.180;2023-04-12T09:05:14;93520.09;;;15.94;37.95
21395;BME280;10858;42.714;23.180;2023-04-12T09:07:41;93509.25;;;14.93;38.06
21395;BME280;10858;42.714;23.180;2023-04-12T09:10:07;93496.13;;;15.86;38.31
21395;BME280;10858;42.714;23.180;2023-04-12T09:12:33;93517.94;;;15.39;39.13
21395;BME280;10858;42.714;23.180;2023-04-12T09:15:09;93505.41;;;15.10;38.24
21395;BME280;10858;42.714;23.180;2023-04-12T09:17:38;93487.63;;;14.51;38.96
21395;BME280;10858;42.714;23.180;2023-04-12T09:20:22;93489.72;;;15.07;38.36
21395;BME280;10858;42.714;23.180;2023-04-12T09:22:50;93482.28;;;15.97;36.71
21395;BME280;10858;42.714;23.180;2023-04-12T09:25:17;93479.09;;;16.08;36.44
21395;BME280;10858;42.714;23.180;2023-04-12T09:27:51;93478.72;;;16.11;36.51
21395;BME280;10858;42.714;23.180;2023-04-12T09:30:19;93469.97;;;16.93;36.10
21395;BME280;10858;42.714;23.180;2023-04-12T09:32:46;93455.22;;;16.49;36.71
21395;BME280;10858;42.714;23.180;2023-04-12T09:35:14;93460.59;;;17.45;35.13
21395;BME280;10858;42.714;23.180;2023-04-12T09:37:40;93467.13;;;16.67;35.48
21395;BME280;10858;42.714;23.180;2023-04-12T09:40:08;93462.09;;;17.13;34.58
21395;BME280;10858;42.714;23.180;2023-04-12T09:42:49;93443.25;;;17.81;34.37
21395;BME280;10858;42.714;23.180;2023-04-12T09:45:21;93447.22;;;17.11;34.54
21395;BME280;10858;42.714;23.180;2023-04-12T09:47:48;93466.56;;;16.78;35.32
21395;BME280;10858;42.714;23.180;2023-04-12T09:50:23;93448.50;;;16.38;31.43
21395;BME280;10858;42.714;23.180;2023-04-12T09:52:50;93447.22;;;15.71;31.76
21395;BME280;10858;42.714;23.180;2023-04-12T09:55:17;93437.59;;;16.40;32.18
21395;BME280;10858;42.714;23.180;2023-04-12T09:57:46;93448.31;;;17.23;30.00
21395;BME280;10858;42.714;23.180;2023-04-12T10:00:15;93440.84;;;18.06;27.55
21395;BME280;10858;42.714;23.180;2023-04-12T10:02:49;93432.94;;;16.69;28.79
21395;BME280;10858;42.714;23.180;2023-04-12T10:05:17;93423.63;;;16.44;30.12
21395;BME280;10858;42.714;23.180;2023-04-12T10:07:45;93433.00;;;18.18;29.75
21395;BME280;10858;42.714;23.180;2023-04-12T10:10:13;93435.25;;;18.01;28.69
21395;BME280;10858;42.714;23.180;2023-04-12T10:12:41;93420.41;;;17.11;29.71
21395;BME280;10858;42.714;23.180;2023-04-12T10:15:09;93426.06;;;18.43;28.73
21395;BME280;10858;42.714;23.180;2023-04-12T10:17:45;93421.91;;;18.60;27.82
21395;BME280;10858;42.714;23.180;2023-04-12T10:20:13;93418.84;;;18.43;29.33
21395;BME280;10858;42.714;23.180;2023-04-12T10:22:41;93403.22;;;19.43;27.46
21395;BME280;10858;42.714;23.180;2023-04-12T10:25:17;93424.38;;;19.01;29.43
21395;BME280;10858;42.714;23.180;2023-04-12T10:27:44;93402.75;;;19.53;28.52
21395;BME280;10858;42.714;23.180;2023-04-12T10:30:27;93430.97;;;18.26;26.92
21395;BME280;10858;42.714;23.180;2023-04-12T10:35:30;93408.38;;;19.45;26.31
21395;BME280;10858;42.714;23.180;2023-04-12T10:38:14;93402.81;;;19.20;29.12
21395;BME280;10858;42.714;23.180;2023-04-12T10:43:32;93433.88;;;19.87;24.45
21395;BME280;10858;42.714;23.180;2023-04-12T10:45:59;93431.81;;;19.05;27.46
21395;BME280;10858;42.714;23.180;2023-04-12T10:51:17;93435.53;;;19.11;25.39
21395;BME280;10858;42.714;23.180;2023-04-12T10:56:45;93437.50;;;20.43;24.36
21395;BME280;10858;42.714;23.180;2023-04-12T10:59:13;93446.31;;;18.85;24.14
21395;BME280;10858;42.714;23.180;2023-04-12T11:01:40;93443.00;;;18.83;24.63
21395;BME280;10858;42.714;23.180;2023-04-12T11:07:09;93430.53;;;19.40;22.54
21395;BME280;10858;42.714;23.180;2023-04-12T11:09:37;93430.41;;;18.77;22.52
21395;BME280;10858;42.714;23.180;2023-04-12T11:14:37;93422.63;;;19.52;23.60
21395;BME280;10858;42.714;23.180;2023-04-12T11:19:38;93421.06;;;18.33;25.08
21395;BME280;10858;42.714;23.180;2023-04-12T11:22:09;93413.25;;;18.64;23.54
21395;BME280;10858;42.714;23.180;2023-04-12T11:24:56;93427.72;;;19.73;23.22
21395;BME280;10858;42.714;23.180;2023-04-12T11:27:24;93409.91;;;19.02;21.87
21395;BME280;10858;42.714;23.180;2023-04-12T11:29:53;93434.28;;;18.35;21.31
21395;BME280;10858;42.714;23.180;2023-04-12T11:32:21;93433.91;;;18.97;22.43
21395;BME280;10858;42.714;23.180;2023-04-12T11:34:48;93417.09;;;19.21;21.88
21395;BME280;10858;42.714;23.180;2023-04-12T11:37:18;93413.78;;;17.95;21.79
21395;BME280;10858;42.714;23.180;2023-04-12T11:39:46;93430.31;;;18.18;22.80
21395;BME280;10858;42.714;23.180;2023-04-12T11:42:23;93411.75;;;18.42;23.03
21395;BME280;10858;42.714;23.180;2023-04-12T11:44:51;93412.97;;;19.25;23.69
21395;BME280;10858;42.714;23.180;2023-04-12T11:47:20;93436.63;;;17.71;24.39
21395;BME280;10858;42.714;23.180;2023-04-12T11:49:49;93429.34;;;18.91;23.10
21395;BME280;10858;42.714;23.180;2023-04-12T11:52:17;93418.97;;;19.84;21.78
21395;BME280;10858;42.714;23.180;2023-04-12T11:54:48;93423.53;;;19.07;23.33
21395;BME280;10858;42.714;23.180;2023-04-12T11:57:16;93422.75;;;19.70;23.16
21395;BME280;10858;42.714;23.180;2023-04-12T11:59:44;93433.91;;;19.10;22.54
21395;BME280;10858;42.714;23.180;2023-04-12T12:02:11;93422.53;;;19.08;24.56
21395;BME280;10858;42.714;23.180;2023-04-12T12:04:43;93427.09;;;18.75;24.53
21395;BME280;10858;42.714;23.180;2023-04-12T12:07:11;93410.09;;;19.20;23.11
21395;BME280;10858;42.714;23.180;2023-04-12T12:09:39;93423.84;;;19.56;24.91
21395;BME280;10858;42.714;23.180;2023-04-12T12:12:06;93433.00;;;19.29;24.67
21395;BME280;10858;42.714;23.180;2023-04-12T12:14:34;93438.44;;;19.09;23.90
21395;BME280;10858;42.714;23.180;2023-04-12T12:17:09;93417.78;;;18.97;24.27
21395;BME280;10858;42.714;23.180;2023-04-12T12:19:38;93427.03;;;19.20;25.25
21395;BME280;10858;42.714;23.180;2023-04-12T12:22:24;93421.72;;;19.71;24.18
21395;BME280;10858;42.714;23.180;2023-04-12T12:25:00;93423.53;;;19.07;24.33
21395;BME280;10858;42.714;23.180;2023-04-12T12:27:33;93416.34;;;18.88;25.19
21395;BME280;10858;42.714;23.180;2023-04-12T12:30:01;93415.69;;;19.12;25.80
21395;BME280;10858;42.714;23.180;2023-04-12T12:32:33;93412.81;;;18.94;24.60
21395;BME280;10858;42.714;23.180;2023-04-12T12:35:01;93412.41;;;18.71;24.50
21395;BME280;10858;42.714;23.180;2023-04-12T12:37:28;93413.88;;;18.53;23.49
21395;BME280;10858;42.714;23.180;2023-04-12T12:40:02;93426.50;;;18.59;24.16
21395;BME280;10858;42.714;23.180;2023-04-12T12:45:12;93417.38;;;18.87;24.82
21395;BME280;10858;42.714;23.180;2023-04-12T12:47:51;93422.25;;;17.92;25.93
21395;BME280;10858;42.714;23.180;2023-04-12T12:50:23;93408.97;;;17.77;24.83
21395;BME280;10858;42.714;23.180;2023-04-12T12:52:51;93403.31;;;18.52;25.23
21395;BME280;10858;42.714;23.180;2023-04-12T12:55:18;93412.38;;;18.18;24.65
21395;BME280;10858;42.714;23.180;2023-04-12T12:57:46;93412.97;;;17.47;25.91
21395;BME280;10858;42.714;23.180;2023-04-12T13:00:14;93412.16;;;18.26;25.44
21395;BME280;10858;42.714;23.180;2023-04-12T13:02:42;93413.25;;;18.78;25.15
21395;BME280;10858;42.714;23.180;2023-04-12T13:05:09;93399.81;;;18.78;24.53
21395;BME280;10858;42.714;23.180;2023-04-12T13:07:35;93408.44;;;18.14;26.56
21395;BME280;10858;42.714;23.180;2023-04-12T13:10:02;93411.31;;;18.00;26.71
21395;BME280;10858;42.714;23.180;2023-04-12T13:12:29;93410.53;;;17.52;27.41
21395;BME280;10858;42.714;23.180;2023-04-12T13:14:56;93413.34;;;17.91;26.05
21395;BME280;10858;42.714;23.180;2023-04-12T13:17:23;93415.53;;;18.54;25.95
21395;BME280;10858;42.714;23.180;2023-04-12T13:19:49;93401.94;;;17.76;26.45
21395;BME280;10858;42.714;23.180;2023-04-12T13:22:16;93417.75;;;18.38;27.78
21395;BME280;10858;42.714;23.180;2023-04-12T13:24:43;93421.09;;;18.46;25.74
21395;BME280;10858;42.714;23.180;2023-04-12T13:27:09;93412.81;;;18.81;25.63
21395;BME280;10858;42.714;23.180;2023-04-12T13:29:37;93427.25;;;18.34;24.81
21395;BME280;10858;42.714;23.180;2023-04-12T13:32:03;93431.28;;;17.37;26.03
21395;BME280;10858;42.714;23.180;2023-04-12T13:34:31;93436.00;;;18.82;26.04